createdAt,value
2023-03-17T00:00:04.784Z,16.28
2023-03-17T00:01:07.455Z,13.20
2023-03-17T00:02:10.079Z,12.50
2023-03-17T00:03:13.199Z,14.03
2023-03-17T00:04:15.872Z,12.77
2023-03-17T00:05:18.961Z,14.44
2023-03-17T00:06:21.663Z,16.58
2023-03-17T00:07:24.292Z,17.78
2023-03-17T00:08:26.961Z,16.67
2023-03-17T00:09:29.630Z,16.65
2023-03-17T00:10:33.121Z,16.12
2023-03-17T00:11:35.812Z,21.54
2023-03-17T00:12:38.360Z,18.95
2023-03-17T00:13:40.926Z,18.03
2023-03-17T00:14:43.491Z,18.14
2023-03-17T00:15:46.099Z,19.69
2023-03-17T00:16:48.622Z,17.15
2023-03-17T00:17:51.299Z,18.51
2023-03-17T00:18:54.068Z,18.05
2023-03-17T00:19:56.845Z,16.55
2023-03-17T00:20:59.953Z,20.82
2023-03-17T00:22:02.793Z,18.33
2023-03-17T00:23:05.678Z,21.45
2023-03-17T00:24:08.551Z,18.43
2023-03-17T00:25:11.519Z,17.71
2023-03-17T00:26:14.497Z,17.55
2023-03-17T00:27:17.480Z,18.84
2023-03-17T00:28:20.418Z,17.00
2023-03-17T00:29:23.436Z,18.34
2023-03-17T00:30:26.314Z,18.11
2023-03-17T00:31:29.369Z,17.57
2023-03-17T00:32:32.267Z,18.51
2023-03-17T00:33:35.341Z,17.86
2023-03-17T00:34:38.213Z,19.58
2023-03-17T00:35:41.174Z,16.82
2023-03-17T00:36:44.066Z,18.99
2023-03-17T00:37:46.937Z,15.74
2023-03-17T00:38:49.812Z,17.91
2023-03-17T00:39:52.600Z,17.50
2023-03-17T00:40:55.562Z,20.55
2023-03-17T00:41:59.463Z,20.10
2023-03-17T00:43:02.024Z,18.11
2023-03-17T00:44:04.593Z,19.73
2023-03-17T00:45:07.375Z,31.88
2023-03-17T00:46:09.987Z,18.74
2023-03-17T00:47:12.908Z,17.82
2023-03-17T00:48:15.599Z,17.36
2023-03-17T00:50:19.080Z,17.16
2023-03-17T00:51:22.256Z,17.98
2023-03-17T00:52:25.334Z,18.54
2023-03-17T00:53:28.205Z,20.08
2023-03-17T00:54:31.085Z,19.20
2023-03-17T00:55:34.270Z,18.39
2023-03-17T00:56:37.345Z,18.71
2023-03-17T00:57:40.527Z,17.39
2023-03-17T00:58:43.301Z,18.72
2023-03-17T00:59:46.283Z,17.05
2023-03-17T01:00:49.190Z,17.07
2023-03-17T01:01:52.087Z,18.63
2023-03-17T01:02:55.205Z,25.92
2023-03-17T01:03:58.085Z,54.92
2023-03-17T01:05:06.270Z,17.38
2023-03-17T01:06:05.574Z,16.35
2023-03-17T01:07:08.854Z,17.42
2023-03-17T01:08:12.058Z,15.87
2023-03-17T01:09:14.857Z,15.96
2023-03-17T01:10:17.688Z,15.24
2023-03-17T01:11:20.585Z,16.52
2023-03-17T01:12:23.334Z,19.29
2023-03-17T01:13:26.344Z,15.32
2023-03-17T01:14:29.255Z,16.83
2023-03-17T01:15:32.058Z,17.94
2023-03-17T01:16:34.988Z,17.52
2023-03-17T01:17:38.009Z,16.21
2023-03-17T01:18:41.455Z,18.33
2023-03-17T01:19:44.476Z,18.27
2023-03-17T01:20:47.246Z,16.52
2023-03-17T01:21:50.126Z,15.67
2023-03-17T01:22:52.995Z,13.14
2023-03-17T01:23:56.386Z,15.20
2023-03-17T01:24:59.258Z,15.11
2023-03-17T01:26:02.146Z,15.84
2023-03-17T01:27:05.040Z,17.55
2023-03-17T01:28:07.782Z,15.32
2023-03-17T01:29:10.764Z,14.71
2023-03-17T01:30:13.527Z,16.34
2023-03-17T01:31:16.428Z,15.00
2023-03-17T01:32:19.382Z,17.74
2023-03-17T01:33:22.254Z,13.52
2023-03-17T01:34:25.233Z,16.30
2023-03-17T01:35:27.903Z,20.22
2023-03-17T01:36:30.573Z,14.78
2023-03-17T01:37:33.369Z,11.57
2023-03-17T01:38:36.028Z,11.00
2023-03-17T01:39:38.688Z,8.33
2023-03-17T01:40:41.258Z,10.05
2023-03-17T01:41:43.834Z,10.08
2023-03-17T01:42:46.390Z,9.32
2023-03-17T01:43:49.368Z,11.98
2023-03-17T01:44:52.344Z,12.62
2023-03-17T01:45:55.171Z,10.32
2023-03-17T01:46:58.108Z,8.08
2023-03-17T01:48:00.864Z,9.69
2023-03-17T01:49:03.632Z,13.18
2023-03-17T01:50:06.712Z,11.57
2023-03-17T01:51:09.588Z,11.38
2023-03-17T01:52:12.525Z,11.48
2023-03-17T01:53:15.350Z,8.48
2023-03-17T01:54:18.324Z,9.23
2023-03-17T01:55:21.293Z,11.64
2023-03-17T01:56:24.270Z,10.38
2023-03-17T01:57:27.041Z,6.62
2023-03-17T01:58:29.924Z,9.96
2023-03-17T01:59:32.802Z,7.85
2023-03-17T02:00:35.974Z,7.90
2023-03-17T02:01:39.269Z,6.59
2023-03-17T02:02:42.137Z,8.06
2023-03-17T02:03:45.018Z,8.19
2023-03-17T02:04:47.981Z,10.47
2023-03-17T02:05:52.663Z,6.82
2023-03-17T02:06:58.289Z,7.39
2023-03-17T02:07:59.677Z,7.25
2023-03-17T02:09:02.452Z,5.84
2023-03-17T02:10:05.438Z,4.72
2023-03-17T02:11:08.420Z,4.55
2023-03-17T02:12:11.178Z,6.76
2023-03-17T02:13:14.181Z,7.52
2023-03-17T02:14:17.173Z,9.95
2023-03-17T02:15:20.118Z,7.04
2023-03-17T02:16:23.228Z,12.25
2023-03-17T02:17:26.163Z,9.25
2023-03-17T02:18:29.038Z,8.61
2023-03-17T02:19:31.811Z,9.85
2023-03-17T02:20:34.995Z,11.52
2023-03-17T02:21:38.075Z,11.92
2023-03-17T02:22:40.959Z,10.52
2023-03-17T02:23:44.028Z,13.64
2023-03-17T02:24:47.012Z,11.33
2023-03-17T02:25:49.781Z,13.27
2023-03-17T02:26:52.446Z,9.58
2023-03-17T02:27:55.115Z,9.79
2023-03-17T02:28:57.685Z,9.45
2023-03-17T02:30:00.355Z,12.90
2023-03-17T02:31:03.049Z,13.05
2023-03-17T02:32:06.003Z,10.83
2023-03-17T02:33:08.601Z,12.68
2023-03-17T02:34:11.235Z,12.58
2023-03-17T02:35:13.908Z,11.51
2023-03-17T02:36:16.518Z,11.72
2023-03-17T02:37:19.148Z,9.89
2023-03-17T02:38:21.833Z,7.87
2023-03-17T02:39:24.599Z,9.46
2023-03-17T02:40:27.429Z,11.48
2023-03-17T02:41:30.147Z,10.92
2023-03-17T02:42:32.807Z,8.57
2023-03-17T02:43:35.373Z,9.90
2023-03-17T02:44:38.041Z,16.41
2023-03-17T02:45:41.010Z,9.83
2023-03-17T02:46:43.589Z,9.98
2023-03-17T02:47:46.461Z,11.12
2023-03-17T02:48:49.147Z,8.56
2023-03-17T02:49:51.606Z,12.20
2023-03-17T02:50:54.268Z,12.22
2023-03-17T02:51:56.831Z,11.48
2023-03-17T02:52:59.912Z,14.08
2023-03-17T02:54:02.618Z,12.84
2023-03-17T02:55:05.359Z,11.57
2023-03-17T02:56:08.131Z,10.23
2023-03-17T02:57:11.009Z,9.46
2023-03-17T02:58:13.977Z,10.86
2023-03-17T02:59:16.962Z,10.40
2023-03-17T03:00:19.731Z,13.49
2023-03-17T03:01:22.647Z,18.52
2023-03-17T03:02:25.539Z,13.28
2023-03-17T03:03:28.556Z,13.28
2023-03-17T03:04:31.328Z,12.62
2023-03-17T03:05:34.317Z,14.82
2023-03-17T03:06:37.384Z,12.81
2023-03-17T03:07:40.364Z,10.85
2023-03-17T03:08:43.966Z,13.58
2023-03-17T03:09:47.037Z,15.04
2023-03-17T03:10:49.805Z,12.37
2023-03-17T03:11:52.684Z,12.48
2023-03-17T03:12:55.659Z,15.34
2023-03-17T03:13:58.736Z,14.48
2023-03-17T03:15:01.626Z,15.06
2023-03-17T03:16:04.754Z,14.78
2023-03-17T03:17:07.363Z,13.65
2023-03-17T03:18:10.237Z,12.23
2023-03-17T03:19:13.118Z,14.49
2023-03-17T03:20:15.985Z,12.94
2023-03-17T03:21:18.973Z,12.36
2023-03-17T03:22:21.841Z,13.59
2023-03-17T03:23:24.711Z,17.21
2023-03-17T03:24:27.697Z,15.48
2023-03-17T03:25:30.464Z,13.72
2023-03-17T03:26:33.436Z,11.55
2023-03-17T03:27:36.415Z,11.55
2023-03-17T03:28:39.294Z,15.65
2023-03-17T03:29:41.964Z,12.36
2023-03-17T03:30:45.237Z,17.57
2023-03-17T03:31:48.155Z,13.54
2023-03-17T03:32:51.158Z,13.25
2023-03-17T03:33:54.082Z,14.27
2023-03-17T03:34:57.073Z,15.82
2023-03-17T03:36:00.012Z,14.47
2023-03-17T03:37:02.920Z,14.79
2023-03-17T03:38:05.796Z,13.52
2023-03-17T03:39:08.554Z,13.46
2023-03-17T03:40:11.535Z,13.64
2023-03-17T03:41:14.409Z,13.82
2023-03-17T03:42:17.182Z,15.48
2023-03-17T03:43:23.691Z,16.38
2023-03-17T03:44:24.475Z,15.42
2023-03-17T03:45:27.446Z,14.68
2023-03-17T03:46:30.928Z,13.05
2023-03-17T03:47:34.012Z,17.18
2023-03-17T03:48:36.806Z,14.83
2023-03-17T03:49:39.557Z,13.95
2023-03-17T03:50:42.736Z,13.55
2023-03-17T03:51:45.604Z,12.00
2023-03-17T03:52:48.377Z,12.52
2023-03-17T03:53:51.252Z,11.37
2023-03-17T03:54:54.022Z,11.26
2023-03-17T03:55:57.402Z,11.65
2023-03-17T03:57:00.176Z,13.79
2023-03-17T03:58:03.058Z,14.01
2023-03-17T03:59:05.927Z,11.15
2023-03-17T04:00:08.943Z,11.76
2023-03-17T04:01:12.317Z,13.79
2023-03-17T04:02:15.126Z,11.48
2023-03-17T04:03:18.074Z,12.16
2023-03-17T04:04:21.161Z,12.40
2023-03-17T04:05:23.996Z,12.33
2023-03-17T04:06:26.879Z,9.56
2023-03-17T04:07:29.742Z,9.83
2023-03-17T04:08:32.668Z,12.99
2023-03-17T04:09:35.493Z,13.14
2023-03-17T04:10:38.372Z,11.25
2023-03-17T04:11:41.444Z,10.12
2023-03-17T04:12:44.318Z,9.90
2023-03-17T04:13:47.208Z,11.57
2023-03-17T04:14:50.172Z,12.76
2023-03-17T04:15:53.196Z,11.01
2023-03-17T04:16:56.355Z,11.36
2023-03-17T04:17:59.104Z,13.12
2023-03-17T04:19:02.091Z,12.06
2023-03-17T04:20:04.851Z,13.22
2023-03-17T04:21:07.729Z,11.73
2023-03-17T04:22:10.887Z,11.30
2023-03-17T04:23:13.688Z,10.77
2023-03-17T04:24:16.657Z,9.55
2023-03-17T04:25:19.544Z,12.04
2023-03-17T04:26:22.305Z,12.75
2023-03-17T04:27:25.279Z,11.96
2023-03-17T04:28:28.156Z,12.55
2023-03-17T04:29:31.038Z,13.28
2023-03-17T04:30:34.327Z,11.61
2023-03-17T04:31:37.142Z,14.74
2023-03-17T04:32:40.412Z,14.90
2023-03-17T04:33:43.262Z,10.52
2023-03-17T04:34:46.120Z,13.27
2023-03-17T04:35:49.112Z,13.18
2023-03-17T04:36:51.868Z,11.47
2023-03-17T04:37:54.850Z,11.93
2023-03-17T04:38:57.723Z,10.85
2023-03-17T04:40:00.494Z,12.45
2023-03-17T04:41:03.577Z,12.13
2023-03-17T04:42:06.550Z,12.55
2023-03-17T04:43:09.637Z,9.75
2023-03-17T04:44:12.406Z,11.28
2023-03-17T04:45:15.505Z,13.73
2023-03-17T04:46:18.354Z,11.28
2023-03-17T04:47:21.248Z,13.14
2023-03-17T04:48:24.125Z,12.57
2023-03-17T04:49:27.016Z,11.05
2023-03-17T04:50:30.197Z,10.79
2023-03-17T04:51:33.340Z,11.76
2023-03-17T04:52:36.118Z,13.12
2023-03-17T04:53:39.400Z,12.51
2023-03-17T04:54:42.375Z,11.28
2023-03-17T04:55:45.261Z,13.95
2023-03-17T04:56:48.019Z,11.30
2023-03-17T04:57:50.904Z,13.34
2023-03-17T04:58:53.881Z,12.39
2023-03-17T04:59:56.666Z,13.24
2023-03-17T05:00:59.640Z,12.40
2023-03-17T05:02:02.661Z,14.43
2023-03-17T05:03:09.076Z,14.82
2023-03-17T05:04:12.729Z,17.43
2023-03-17T05:05:14.400Z,12.70
2023-03-17T05:06:17.278Z,13.36
2023-03-17T05:07:20.158Z,11.95
2023-03-17T05:08:23.028Z,13.56
2023-03-17T05:09:26.207Z,14.48
2023-03-17T05:10:29.484Z,13.19
2023-03-17T05:11:32.362Z,14.17
2023-03-17T05:12:35.250Z,15.22
2023-03-17T05:13:38.133Z,14.98
2023-03-17T05:14:41.506Z,13.68
2023-03-17T05:15:44.380Z,11.58
2023-03-17T05:16:47.240Z,11.87
2023-03-17T05:17:50.032Z,14.92
2023-03-17T05:18:52.897Z,11.89
2023-03-17T05:19:56.122Z,12.48
2023-03-17T05:20:58.958Z,15.35
2023-03-17T05:22:01.845Z,13.98
2023-03-17T05:23:04.914Z,11.98
2023-03-17T05:24:07.676Z,15.13
2023-03-17T05:25:10.759Z,12.42
2023-03-17T05:26:13.549Z,10.83
2023-03-17T05:27:16.157Z,10.21
2023-03-17T05:28:18.990Z,13.65
2023-03-17T05:29:21.744Z,14.17
2023-03-17T05:30:24.623Z,18.52
2023-03-17T05:31:27.754Z,12.60
2023-03-17T05:32:30.725Z,11.97
2023-03-17T05:33:33.550Z,15.23
2023-03-17T05:34:36.323Z,15.42
2023-03-17T05:35:39.517Z,14.18
2023-03-17T05:36:42.177Z,12.80
2023-03-17T05:37:48.128Z,12.05
2023-03-17T05:38:51.121Z,13.92
2023-03-17T05:39:53.978Z,15.81
2023-03-17T05:40:56.948Z,11.25
2023-03-17T05:41:59.737Z,12.80
2023-03-17T05:43:02.800Z,12.42
2023-03-17T05:44:05.776Z,13.08
2023-03-17T05:45:08.856Z,11.83
2023-03-17T05:46:12.309Z,12.05
2023-03-17T05:47:14.913Z,14.88
2023-03-17T05:48:17.589Z,14.81
2023-03-17T05:49:20.262Z,16.55
2023-03-17T05:50:22.839Z,12.88
2023-03-17T05:51:25.697Z,15.40
2023-03-17T05:52:28.383Z,14.05
2023-03-17T05:53:31.044Z,12.73
2023-03-17T05:54:33.814Z,13.95
2023-03-17T05:55:36.578Z,13.04
2023-03-17T05:56:39.271Z,13.18
2023-03-17T05:57:41.822Z,12.88
2023-03-17T05:58:44.383Z,14.70
2023-03-17T05:59:46.954Z,20.83
2023-03-17T06:00:49.628Z,17.87
2023-03-17T06:01:52.604Z,13.81
2023-03-17T06:02:55.273Z,11.93
2023-03-17T06:03:57.974Z,15.78
2023-03-17T06:05:00.624Z,13.48
2023-03-17T06:06:03.180Z,17.56
2023-03-17T06:07:06.168Z,12.99
2023-03-17T06:08:08.936Z,16.21
2023-03-17T06:09:11.538Z,15.06
2023-03-17T06:10:14.280Z,15.57
2023-03-17T06:11:17.166Z,11.46
2023-03-17T06:12:20.438Z,13.57
2023-03-17T06:13:23.262Z,13.05
2023-03-17T06:14:27.200Z,12.74
2023-03-17T06:15:30.675Z,12.17
2023-03-17T06:16:33.685Z,12.78
2023-03-17T06:17:36.849Z,16.50
2023-03-17T06:18:39.726Z,13.76
2023-03-17T06:19:42.600Z,13.77
2023-03-17T06:20:45.475Z,11.55
2023-03-17T06:21:48.365Z,13.61
2023-03-17T06:23:03.432Z,12.24
2023-03-17T06:23:55.951Z,13.85
2023-03-17T06:24:58.709Z,12.11
2023-03-17T06:26:01.691Z,11.22
2023-03-17T06:27:04.564Z,13.54
2023-03-17T06:28:07.670Z,13.28
2023-03-17T06:29:10.340Z,16.21
2023-03-17T06:30:13.084Z,13.46
2023-03-17T06:31:16.339Z,14.66
2023-03-17T06:32:21.062Z,13.09
2023-03-17T06:33:23.970Z,15.96
2023-03-17T06:34:27.837Z,12.59
2023-03-17T06:35:31.484Z,12.26
2023-03-17T06:36:36.941Z,13.43
2023-03-17T06:37:39.251Z,13.03
2023-03-17T06:38:42.126Z,13.70
2023-03-17T06:39:44.893Z,13.42
2023-03-17T06:40:47.777Z,13.03
2023-03-17T06:41:51.186Z,14.42
2023-03-17T06:42:54.044Z,15.00
2023-03-17T06:43:57.436Z,13.17
2023-03-17T06:45:00.338Z,16.98
2023-03-17T06:46:03.440Z,14.31
2023-03-17T06:47:06.351Z,11.32
2023-03-17T06:48:09.299Z,11.10
2023-03-17T06:49:12.226Z,13.05
2023-03-17T06:50:14.674Z,13.02
2023-03-17T06:51:17.448Z,13.32
2023-03-17T06:52:20.426Z,15.26
2023-03-17T06:53:23.643Z,13.92
2023-03-17T06:54:26.569Z,12.95
2023-03-17T06:55:30.128Z,16.41
2023-03-17T06:56:33.357Z,13.71
2023-03-17T06:57:36.584Z,14.63
2023-03-17T06:58:39.630Z,17.10
2023-03-17T06:59:42.803Z,14.48
2023-03-17T07:00:46.077Z,16.18
2023-03-17T07:01:48.978Z,12.42
2023-03-17T07:02:52.058Z,15.08
2023-03-17T07:03:54.907Z,15.98
2023-03-17T07:04:58.236Z,12.33
2023-03-17T07:06:01.075Z,16.80
2023-03-17T07:07:03.940Z,17.92
2023-03-17T07:08:06.919Z,14.62
2023-03-17T07:09:09.794Z,13.46
2023-03-17T07:10:12.977Z,17.50
2023-03-17T07:11:15.948Z,15.69
2023-03-17T07:12:19.128Z,14.13
2023-03-17T07:13:23.130Z,13.24
2023-03-17T07:14:26.038Z,14.34
2023-03-17T07:15:29.744Z,15.58
2023-03-17T07:16:32.823Z,13.64
2023-03-17T07:17:35.760Z,14.72
2023-03-17T07:18:38.745Z,13.35
2023-03-17T07:19:41.627Z,15.62
2023-03-17T07:20:44.895Z,14.98
2023-03-17T07:21:47.784Z,13.62
2023-03-17T07:22:50.640Z,13.61
2023-03-17T07:23:54.177Z,14.08
2023-03-17T07:24:57.207Z,15.42
2023-03-17T07:26:00.225Z,13.85
2023-03-17T07:27:03.157Z,13.52
2023-03-17T07:28:05.935Z,13.02
2023-03-17T07:29:08.843Z,13.92
2023-03-17T07:30:11.583Z,14.07
2023-03-17T07:31:14.679Z,13.64
2023-03-17T07:32:17.560Z,12.24
2023-03-17T07:33:20.409Z,11.23
2023-03-17T07:34:23.311Z,15.27
2023-03-17T07:35:26.217Z,16.96
2023-03-17T07:36:29.233Z,14.02
2023-03-17T07:37:32.025Z,14.88
2023-03-17T07:38:34.891Z,14.87
2023-03-17T07:39:37.758Z,13.20
2023-03-17T07:40:40.748Z,12.78
2023-03-17T07:41:44.078Z,17.96
2023-03-17T07:42:47.096Z,14.53
2023-03-17T07:43:50.206Z,17.73
2023-03-17T07:44:53.054Z,15.46
2023-03-17T07:45:56.301Z,17.19
2023-03-17T07:47:00.191Z,13.61
2023-03-17T07:48:03.315Z,15.12
2023-03-17T07:49:06.593Z,13.41
2023-03-17T07:50:09.797Z,17.27
2023-03-17T07:51:12.960Z,16.70
2023-03-17T07:52:16.300Z,14.58
2023-03-17T07:53:19.302Z,14.04
2023-03-17T07:54:22.434Z,11.81
2023-03-17T07:55:25.382Z,13.14
2023-03-17T07:56:28.189Z,15.78
2023-03-17T07:57:31.277Z,15.91
2023-03-17T07:58:34.119Z,16.78
2023-03-17T07:59:37.010Z,13.31
2023-03-17T08:00:40.159Z,15.62
2023-03-17T08:01:43.135Z,16.24
2023-03-17T08:02:53.708Z,16.17
2023-03-17T08:03:51.108Z,17.90
2023-03-17T08:04:54.017Z,12.53
2023-03-17T08:05:56.898Z,13.61
2023-03-17T08:06:59.914Z,18.55
2023-03-17T08:08:03.198Z,15.59
2023-03-17T08:09:05.939Z,16.33
2023-03-17T08:10:08.725Z,21.18
2023-03-17T08:11:11.505Z,15.71
2023-03-17T08:12:14.164Z,18.09
2023-03-17T08:13:17.267Z,18.45
2023-03-17T08:14:20.003Z,16.06
2023-03-17T08:15:22.878Z,17.01
2023-03-17T08:16:31.677Z,15.72
2023-03-17T08:17:34.776Z,17.16
2023-03-17T08:18:37.760Z,17.35
2023-03-17T08:19:41.076Z,20.47
2023-03-17T08:20:44.332Z,19.85
2023-03-17T08:21:47.525Z,19.28
2023-03-17T08:22:50.790Z,19.40
2023-03-17T08:23:54.478Z,19.76
2023-03-17T08:24:57.475Z,19.44
2023-03-17T08:26:00.218Z,17.92
2023-03-17T08:27:03.004Z,16.80
2023-03-17T08:28:06.068Z,18.39
2023-03-17T08:29:09.257Z,16.08
2023-03-17T08:30:12.036Z,17.22
2023-03-17T08:31:14.873Z,15.57
2023-03-17T08:32:17.676Z,16.98
2023-03-17T08:33:20.513Z,18.07
2023-03-17T08:34:23.724Z,16.94
2023-03-17T08:35:26.626Z,19.82
2023-03-17T08:36:29.377Z,15.75
2023-03-17T08:37:32.154Z,19.52
2023-03-17T08:38:35.031Z,19.25
2023-03-17T08:39:38.307Z,18.66
2023-03-17T08:40:41.183Z,20.73
2023-03-17T08:41:44.051Z,16.42
2023-03-17T08:42:47.442Z,18.62
2023-03-17T08:43:50.644Z,14.76
2023-03-17T08:44:53.394Z,15.75
2023-03-17T08:45:56.401Z,14.67
2023-03-17T08:46:59.248Z,18.59
2023-03-17T08:48:03.160Z,21.85
2023-03-17T08:49:06.260Z,21.32
2023-03-17T08:50:09.108Z,18.00
2023-03-17T08:51:12.177Z,17.53
2023-03-17T08:52:15.066Z,17.01
2023-03-17T08:53:18.132Z,18.06
2023-03-17T08:54:21.026Z,16.49
2023-03-17T08:55:23.798Z,11.41
2023-03-17T08:56:26.754Z,16.84
2023-03-17T08:57:29.539Z,17.55
2023-03-17T08:58:32.515Z,16.58
2023-03-17T08:59:35.392Z,20.88
2023-03-17T09:00:38.465Z,17.77
2023-03-17T09:01:41.406Z,16.05
2023-03-17T09:02:44.262Z,16.11
2023-03-17T09:03:47.094Z,13.53
2023-03-17T09:04:50.708Z,18.25
2023-03-17T09:05:53.887Z,18.19
2023-03-17T09:07:03.820Z,17.56
2023-03-17T09:08:01.300Z,16.89
2023-03-17T09:09:04.344Z,17.04
2023-03-17T09:10:07.409Z,19.12
2023-03-17T09:11:10.516Z,15.97
2023-03-17T09:12:13.357Z,19.69
2023-03-17T09:13:16.243Z,16.88
2023-03-17T09:14:19.109Z,16.02
2023-03-17T09:15:21.979Z,17.12
2023-03-17T09:16:25.402Z,18.35
2023-03-17T09:17:29.860Z,16.61
2023-03-17T09:18:32.451Z,14.54
2023-03-17T09:19:36.457Z,17.95
2023-03-17T09:20:39.428Z,17.83
2023-03-17T09:21:42.404Z,19.25
2023-03-17T09:22:45.288Z,17.19
2023-03-17T09:23:48.374Z,16.90
2023-03-17T09:24:51.230Z,14.31
2023-03-17T09:25:54.313Z,19.69
2023-03-17T09:26:57.593Z,15.67
2023-03-17T09:28:00.476Z,16.38
2023-03-17T09:29:04.361Z,15.78
2023-03-17T09:30:07.664Z,16.79
2023-03-17T09:31:10.659Z,16.22
2023-03-17T09:32:13.826Z,16.52
2023-03-17T09:33:17.019Z,18.29
2023-03-17T09:34:19.973Z,16.67
2023-03-17T09:35:22.885Z,17.94
2023-03-17T09:36:25.928Z,19.03
2023-03-17T09:37:29.136Z,23.29
2023-03-17T09:38:31.981Z,21.54
2023-03-17T09:39:40.620Z,24.38
2023-03-17T09:40:43.265Z,21.72
2023-03-17T09:41:45.930Z,18.19
2023-03-17T09:42:48.608Z,16.89
2023-03-17T09:43:51.278Z,18.03
2023-03-17T09:44:55.891Z,15.12
2023-03-17T09:45:58.686Z,17.51
2023-03-17T09:47:01.443Z,20.34
2023-03-17T09:48:04.102Z,13.18
2023-03-17T09:49:06.974Z,17.16
2023-03-17T09:50:09.767Z,17.48
2023-03-17T09:51:12.726Z,16.12
2023-03-17T09:52:15.596Z,17.79
2023-03-17T09:53:18.795Z,17.75
2023-03-17T09:54:21.555Z,15.65
2023-03-17T09:55:24.424Z,18.70
2023-03-17T09:56:27.301Z,21.60
2023-03-17T09:57:30.498Z,22.35
2023-03-17T09:58:33.570Z,20.76
2023-03-17T09:59:36.439Z,21.84
2023-03-17T10:00:39.210Z,18.57
2023-03-17T10:01:42.152Z,14.71
2023-03-17T10:02:44.970Z,15.83
2023-03-17T10:03:48.039Z,16.15
2023-03-17T10:04:50.810Z,18.93
2023-03-17T10:05:53.819Z,20.05
2023-03-17T10:06:56.559Z,22.41
2023-03-17T10:07:59.639Z,20.47
2023-03-17T10:09:02.807Z,19.93
2023-03-17T10:10:05.705Z,18.89
2023-03-17T10:11:08.887Z,17.16
2023-03-17T10:12:11.958Z,15.51
2023-03-17T10:13:15.340Z,16.67
2023-03-17T10:14:18.539Z,20.26
2023-03-17T10:15:21.295Z,16.91
2023-03-17T10:16:26.781Z,19.52
2023-03-17T10:17:29.508Z,22.46
2023-03-17T10:18:32.496Z,20.07
2023-03-17T10:19:35.775Z,19.73
2023-03-17T10:20:38.535Z,16.49
2023-03-17T10:21:41.514Z,17.96
2023-03-17T10:22:44.398Z,16.79
2023-03-17T10:23:47.273Z,21.34
2023-03-17T10:24:50.449Z,20.34
2023-03-17T10:25:53.457Z,15.54
2023-03-17T10:26:56.398Z,17.82
2023-03-17T10:27:59.176Z,19.09
2023-03-17T10:29:02.046Z,17.22
2023-03-17T10:30:05.242Z,21.75
2023-03-17T10:31:08.076Z,18.55
2023-03-17T10:32:10.877Z,17.16
2023-03-17T10:33:13.856Z,20.13
2023-03-17T10:34:16.816Z,19.16
2023-03-17T10:35:19.979Z,16.45
2023-03-17T10:36:22.681Z,18.48
2023-03-17T10:37:25.554Z,21.15
2023-03-17T10:38:28.332Z,21.22
2023-03-17T10:39:32.899Z,16.65
2023-03-17T10:40:36.025Z,19.58
2023-03-17T10:41:38.697Z,21.80
2023-03-17T10:42:41.672Z,19.30
2023-03-17T10:43:44.556Z,20.00
2023-03-17T10:44:47.420Z,18.68
2023-03-17T10:45:50.496Z,17.14
2023-03-17T10:46:53.422Z,20.10
2023-03-17T10:47:56.262Z,18.65
2023-03-17T10:48:59.229Z,19.63
2023-03-17T10:50:01.998Z,24.75
2023-03-17T10:51:05.181Z,17.07
2023-03-17T10:52:07.534Z,24.00
2023-03-17T10:53:10.619Z,22.98
2023-03-17T10:54:13.596Z,18.02
2023-03-17T10:55:16.384Z,22.96
2023-03-17T10:56:19.408Z,19.58
2023-03-17T10:57:22.219Z,19.29
2023-03-17T10:58:24.996Z,18.37
2023-03-17T10:59:27.925Z,22.75
2023-03-17T11:00:30.964Z,19.42
2023-03-17T11:01:34.130Z,15.62
2023-03-17T11:02:37.024Z,22.02
2023-03-17T11:03:40.055Z,17.08
2023-03-17T11:04:42.852Z,17.90
2023-03-17T11:05:45.565Z,18.18
2023-03-17T11:06:48.712Z,15.61
2023-03-17T11:07:51.786Z,17.90
2023-03-17T11:08:54.702Z,17.26
2023-03-17T11:09:57.439Z,17.04
2023-03-17T11:11:00.303Z,17.99
2023-03-17T11:12:03.418Z,18.16
2023-03-17T11:13:06.179Z,19.67
2023-03-17T11:14:09.212Z,22.07
2023-03-17T11:15:12.024Z,17.22
2023-03-17T11:16:14.913Z,18.58
2023-03-17T11:17:17.976Z,18.96
2023-03-17T11:18:20.750Z,16.70
2023-03-17T11:19:23.612Z,20.71
2023-03-17T11:20:26.404Z,19.16
2023-03-17T11:21:29.261Z,19.47
2023-03-17T11:22:32.241Z,19.53
2023-03-17T11:23:35.223Z,15.89
2023-03-17T11:24:37.990Z,20.21
2023-03-17T11:25:40.767Z,19.37
2023-03-17T11:26:43.746Z,21.92
2023-03-17T11:27:46.924Z,21.35
2023-03-17T11:28:49.714Z,20.02
2023-03-17T11:29:52.474Z,15.23
2023-03-17T11:30:55.344Z,20.85
2023-03-17T11:31:58.296Z,20.55
2023-03-17T11:33:01.216Z,19.32
2023-03-17T11:34:04.072Z,20.52
2023-03-17T11:35:06.837Z,23.81
2023-03-17T11:36:09.775Z,20.50
2023-03-17T11:37:12.696Z,20.11
2023-03-17T11:38:15.566Z,18.41
2023-03-17T11:39:18.339Z,20.52
2023-03-17T11:40:21.108Z,21.75
2023-03-17T11:41:23.992Z,18.28
2023-03-17T11:42:26.859Z,20.43
2023-03-17T11:43:29.740Z,22.59
2023-03-17T11:44:32.503Z,19.48
2023-03-17T11:45:35.268Z,22.11
2023-03-17T11:46:38.048Z,19.91
2023-03-17T11:47:40.923Z,22.82
2023-03-17T11:48:44.101Z,18.60
2023-03-17T11:49:46.980Z,17.30
2023-03-17T11:50:49.660Z,17.24
2023-03-17T11:51:52.639Z,19.55
2023-03-17T11:52:55.399Z,16.65
2023-03-17T11:53:58.688Z,20.42
2023-03-17T11:55:01.458Z,19.72
2023-03-17T11:56:04.329Z,19.65
2023-03-17T11:57:07.206Z,18.92
2023-03-17T11:58:10.186Z,23.63
2023-03-17T11:59:13.479Z,20.18
2023-03-17T12:00:16.428Z,22.83
2023-03-17T12:01:19.313Z,20.93
2023-03-17T12:02:22.191Z,20.06
2023-03-17T12:03:25.018Z,21.97
2023-03-17T12:04:28.009Z,23.75
2023-03-17T12:05:31.017Z,22.27
2023-03-17T12:06:33.813Z,20.05
2023-03-17T12:07:36.568Z,24.14
2023-03-17T12:08:39.438Z,21.35
2023-03-17T12:09:42.316Z,21.62
2023-03-17T12:10:45.195Z,20.44
2023-03-17T12:11:48.055Z,23.48
2023-03-17T12:12:51.035Z,19.05
2023-03-17T12:13:53.810Z,18.82
2023-03-17T12:14:57.299Z,20.75
2023-03-17T12:16:00.149Z,25.03
2023-03-17T12:17:03.266Z,21.27
2023-03-17T12:18:08.789Z,23.25
2023-03-17T12:19:11.587Z,22.63
2023-03-17T12:20:14.577Z,21.18
2023-03-17T12:21:17.414Z,22.25
2023-03-17T12:22:20.302Z,25.08
2023-03-17T12:23:23.058Z,26.85
2023-03-17T12:24:25.940Z,26.13
2023-03-17T12:25:28.934Z,24.04
2023-03-17T12:26:32.003Z,22.89
2023-03-17T12:27:34.666Z,23.45
2023-03-17T12:28:37.235Z,24.57
2023-03-17T12:29:39.915Z,25.93
2023-03-17T12:30:42.790Z,21.31
2023-03-17T12:31:45.438Z,20.08
2023-03-17T12:32:48.223Z,21.94
2023-03-17T12:33:50.777Z,27.08
2023-03-17T12:34:54.985Z,22.65
2023-03-17T12:35:57.561Z,20.38
2023-03-17T12:37:00.039Z,20.42
2023-03-17T12:38:02.610Z,20.68
2023-03-17T12:39:05.267Z,22.28
2023-03-17T12:40:07.822Z,25.98
2023-03-17T12:41:10.917Z,22.93
2023-03-17T12:42:13.709Z,24.28
2023-03-17T12:43:16.347Z,28.71
2023-03-17T12:44:18.953Z,21.73
2023-03-17T12:45:21.592Z,23.02
2023-03-17T12:46:24.290Z,22.84
2023-03-17T12:47:26.923Z,23.38
2023-03-17T12:48:29.596Z,24.72
2023-03-17T12:49:32.261Z,26.51
2023-03-17T12:50:34.934Z,20.32
2023-03-17T12:51:38.647Z,26.34
2023-03-17T12:52:41.295Z,26.59
2023-03-17T12:53:44.069Z,20.66
2023-03-17T12:54:46.835Z,23.82
2023-03-17T12:55:49.714Z,23.93
2023-03-17T12:56:52.488Z,26.07
2023-03-17T12:57:55.366Z,24.75
2023-03-17T12:58:58.230Z,25.22
2023-03-17T13:00:01.033Z,31.32
2023-03-17T13:01:03.878Z,23.68
2023-03-17T13:02:07.173Z,30.82
2023-03-17T13:03:10.110Z,22.86
2023-03-17T13:04:12.912Z,24.54
2023-03-17T13:05:15.788Z,24.99
2023-03-17T13:06:18.563Z,27.48
2023-03-17T13:07:21.747Z,22.61
2023-03-17T13:08:24.624Z,24.54
2023-03-17T13:09:29.531Z,21.69
2023-03-17T13:10:32.001Z,24.23
2023-03-17T13:11:34.571Z,26.31
2023-03-17T13:12:37.668Z,22.75
2023-03-17T13:13:40.424Z,23.38
2023-03-17T13:14:43.327Z,23.04
2023-03-17T13:15:46.117Z,25.12
2023-03-17T13:16:48.962Z,28.16
2023-03-17T13:17:52.022Z,23.23
2023-03-17T13:18:54.795Z,24.05
2023-03-17T13:19:57.982Z,25.18
2023-03-17T13:21:00.957Z,23.02
2023-03-17T13:22:03.833Z,25.58
2023-03-17T13:23:06.909Z,29.40
2023-03-17T13:24:09.685Z,26.73
2023-03-17T13:25:12.359Z,26.12
2023-03-17T13:26:15.023Z,23.82
2023-03-17T13:27:17.694Z,25.44
2023-03-17T13:28:20.369Z,30.19
2023-03-17T13:29:22.932Z,23.83
2023-03-17T13:30:25.495Z,24.28
2023-03-17T13:31:28.219Z,25.18
2023-03-17T13:32:30.858Z,26.89
2023-03-17T13:33:33.514Z,24.46